createdAt,value
2019-05-13T00:01:31.232Z,14.40
2019-05-13T00:04:04.116Z,14.33
2019-05-13T00:06:50.124Z,16.52
2019-05-13T00:09:13.932Z,17.57
2019-05-13T00:11:46.630Z,15.90
2019-05-13T00:14:20.354Z,15.13
2019-05-13T00:16:54.544Z,16.70
2019-05-13T00:19:27.391Z,18.37
2019-05-13T00:22:03.837Z,12.15
2019-05-13T00:24:36.786Z,17.35
2019-05-13T00:27:10.625Z,14.80
2019-05-13T00:29:44.514Z,12.28
2019-05-13T00:32:17.828Z,14.75
2019-05-13T00:34:53.300Z,17.37
2019-05-13T00:37:25.778Z,13.28
2019-05-13T00:39:59.541Z,13.28
2019-05-13T00:42:33.488Z,15.08
2019-05-13T00:45:07.571Z,14.30
2019-05-13T00:47:43.446Z,15.72
2019-05-13T00:50:16.721Z,14.38
2019-05-13T00:52:53.635Z,15.35
2019-05-13T00:55:26.715Z,15.88
2019-05-13T00:57:59.539Z,14.80
2019-05-13T01:00:34.227Z,16.10
2019-05-13T01:03:07.521Z,11.57
2019-05-13T01:05:41.388Z,16.27
2019-05-13T01:08:14.830Z,12.63
2019-05-13T01:10:49.086Z,14.65
2019-05-13T01:13:23.739Z,16.45
2019-05-13T01:15:57.173Z,17.60
2019-05-13T01:18:33.816Z,14.30
2019-05-13T01:21:06.331Z,15.85
2019-05-13T01:23:40.575Z,15.55
2019-05-13T01:26:14.327Z,12.88
2019-05-13T01:28:47.412Z,15.10
2019-05-13T01:31:23.818Z,15.00
2019-05-13T01:33:57.263Z,14.35
2019-05-13T01:36:34.232Z,17.75
2019-05-13T01:39:10.016Z,16.93
2019-05-13T01:41:43.803Z,18.23
2019-05-13T01:44:18.094Z,18.27
2019-05-13T01:46:53.646Z,15.15
2019-05-13T01:49:26.596Z,14.83
2019-05-13T01:52:03.483Z,15.83
2019-05-13T01:54:35.936Z,15.45
2019-05-13T01:57:09.754Z,17.37
2019-05-13T01:59:43.586Z,15.93
2019-05-13T02:02:17.610Z,13.53
2019-05-13T02:04:53.152Z,15.78
2019-05-13T02:07:26.491Z,11.70
2019-05-13T02:10:04.113Z,15.98
2019-05-13T02:12:37.443Z,13.28
2019-05-13T02:15:14.288Z,15.43
2019-05-13T02:17:46.815Z,14.53
2019-05-13T02:20:19.587Z,14.03
2019-05-13T02:22:53.630Z,14.25
2019-05-13T02:25:27.326Z,15.43
2019-05-13T02:28:09.137Z,12.03
2019-05-13T02:30:36.955Z,13.85
2019-05-13T02:33:13.208Z,13.28
2019-05-13T02:35:45.788Z,12.37
2019-05-13T02:38:28.376Z,12.30
2019-05-13T02:40:54.845Z,13.88
2019-05-13T02:43:28.651Z,14.98
2019-05-13T02:46:04.121Z,13.38
2019-05-13T02:48:38.228Z,12.25
2019-05-13T02:51:12.429Z,14.73
2019-05-13T02:53:46.540Z,16.48
2019-05-13T02:56:22.645Z,13.78
2019-05-13T02:58:55.293Z,16.35
2019-05-13T03:01:32.859Z,13.45
2019-05-13T03:04:03.966Z,14.63
2019-05-13T03:06:37.234Z,15.25
2019-05-13T03:09:12.631Z,13.65
2019-05-13T03:11:46.730Z,17.02
2019-05-13T03:14:23.869Z,16.27
2019-05-13T03:17:03.291Z,15.53
2019-05-13T03:19:35.565Z,15.75
2019-05-13T03:22:08.855Z,14.33
2019-05-13T03:24:43.020Z,11.73
2019-05-13T03:27:20.253Z,12.55
2019-05-13T03:29:53.472Z,13.83
2019-05-13T03:32:35.102Z,16.48
2019-05-13T03:35:07.041Z,12.43
2019-05-13T03:37:36.329Z,14.47
2019-05-13T03:40:13.105Z,12.47
2019-05-13T03:42:46.578Z,15.35
2019-05-13T03:45:22.080Z,10.75
2019-05-13T03:47:58.420Z,13.18
2019-05-13T03:50:34.609Z,11.75
2019-05-13T03:53:07.256Z,11.15
2019-05-13T03:55:43.178Z,13.43
2019-05-13T03:58:14.847Z,12.98
2019-05-13T04:00:48.480Z,12.58
2019-05-13T04:03:22.743Z,13.25
2019-05-13T04:05:57.046Z,12.93
2019-05-13T04:08:32.640Z,12.65
2019-05-13T04:11:06.024Z,12.05
2019-05-13T04:13:42.887Z,14.38
2019-05-13T04:16:16.433Z,10.88
2019-05-13T04:18:53.352Z,13.45
2019-05-13T04:21:24.869Z,15.20
2019-05-13T04:23:58.646Z,13.05
2019-05-13T04:26:32.711Z,14.33
2019-05-13T04:29:06.619Z,14.93
2019-05-13T04:31:42.348Z,14.83
2019-05-13T04:34:14.852Z,10.63
2019-05-13T04:36:51.863Z,15.03
2019-05-13T04:39:39.741Z,11.33
2019-05-13T04:42:02.350Z,12.10
2019-05-13T04:44:34.928Z,12.75
2019-05-13T04:47:12.480Z,13.98
2019-05-13T04:49:44.597Z,13.03
2019-05-13T04:52:17.435Z,15.20
2019-05-13T04:54:52.820Z,13.72
2019-05-13T04:57:26.476Z,16.10
2019-05-13T05:00:03.730Z,18.32
2019-05-13T05:03:22.758Z,13.38
2019-05-13T05:06:17.372Z,12.95
2019-05-13T05:10:30.242Z,11.33
2019-05-13T05:13:32.396Z,13.05
2019-05-13T05:16:44.901Z,14.65
2019-05-13T05:20:12.479Z,17.02
2019-05-13T05:23:42.294Z,15.38
2019-05-13T05:27:12.095Z,16.50
2019-05-13T05:30:38.342Z,14.80
2019-05-13T05:33:44.677Z,16.62
2019-05-13T05:37:17.102Z,15.10
2019-05-13T05:39:51.921Z,16.97
2019-05-13T05:42:28.085Z,18.67
2019-05-13T05:45:04.769Z,23.57
2019-05-13T05:47:41.875Z,18.82
2019-05-13T05:50:16.373Z,17.32
2019-05-13T05:52:52.024Z,13.98
2019-05-13T05:55:27.751Z,17.48
2019-05-13T05:58:02.317Z,13.83
2019-05-13T06:00:41.322Z,12.45
2019-05-13T06:03:14.150Z,13.48
2019-05-13T06:05:51.255Z,17.42
2019-05-13T06:08:24.943Z,16.52
2019-05-13T06:11:00.736Z,15.88
2019-05-13T06:13:33.984Z,19.00
2019-05-13T06:16:07.802Z,14.53
2019-05-13T06:18:41.772Z,12.90
2019-05-13T06:21:14.950Z,16.10
2019-05-13T06:23:51.707Z,15.05
2019-05-13T06:26:24.092Z,14.78
2019-05-13T06:28:58.529Z,19.60
2019-05-13T06:31:32.397Z,16.87
2019-05-13T06:34:05.919Z,18.65
2019-05-13T06:36:41.674Z,13.35
2019-05-13T06:39:15.764Z,15.45
2019-05-13T06:41:51.736Z,13.30
2019-05-13T06:44:26.199Z,12.25
2019-05-13T06:47:02.605Z,14.80
2019-05-13T06:49:36.152Z,15.48
2019-05-13T06:52:12.126Z,15.60
2019-05-13T06:54:47.157Z,13.78
2019-05-13T06:57:21.980Z,16.02
2019-05-13T06:59:56.293Z,16.27
2019-05-13T07:02:29.106Z,14.33
2019-05-13T07:05:02.504Z,10.40
2019-05-13T07:07:35.494Z,15.83
2019-05-13T07:10:08.440Z,12.98
2019-05-13T07:12:42.563Z,14.28
2019-05-13T07:15:15.840Z,11.68
2019-05-13T07:17:51.810Z,11.85
2019-05-13T07:20:23.542Z,13.58
2019-05-13T07:22:57.706Z,11.70
2019-05-13T07:25:32.658Z,13.05
2019-05-13T07:28:06.370Z,9.68
2019-05-13T07:30:45.758Z,12.43
2019-05-13T07:33:21.334Z,12.28
2019-05-13T07:35:58.363Z,12.25
2019-05-13T07:38:32.343Z,9.05
2019-05-13T07:41:08.225Z,10.90
2019-05-13T07:43:42.908Z,10.60
2019-05-13T07:46:17.173Z,8.23
2019-05-13T07:48:52.079Z,8.15
2019-05-13T07:51:27.954Z,7.15
2019-05-13T07:54:02.411Z,9.78
2019-05-13T07:56:37.307Z,12.93
2019-05-13T07:59:12.259Z,14.53
2019-05-13T08:01:46.779Z,8.95
2019-05-13T08:04:25.578Z,7.47
2019-05-13T08:06:55.646Z,10.85
2019-05-13T08:09:31.133Z,9.48
2019-05-13T08:12:10.598Z,8.83
2019-05-13T08:14:43.232Z,7.97
2019-05-13T08:17:14.831Z,6.58
2019-05-13T08:19:48.147Z,6.75
2019-05-13T08:22:22.276Z,7.92
2019-05-13T08:24:56.435Z,6.80
2019-05-13T08:27:30.794Z,7.58
2019-05-13T08:30:04.584Z,8.48
2019-05-13T08:32:37.773Z,5.42
2019-05-13T08:35:12.502Z,11.05
2019-05-13T08:37:46.134Z,6.22
2019-05-13T08:40:23.298Z,5.30
2019-05-13T08:42:55.819Z,8.50
2019-05-13T08:45:31.511Z,5.72
2019-05-13T08:48:04.730Z,5.83
2019-05-13T08:50:38.118Z,3.75
2019-05-13T08:53:12.263Z,5.80
2019-05-13T08:55:46.361Z,12.05
2019-05-13T08:58:21.693Z,5.50
2019-05-13T09:00:58.979Z,6.53
2019-05-13T09:03:32.821Z,6.58
2019-05-13T09:06:06.572Z,4.60
2019-05-13T09:08:42.449Z,7.03
2019-05-13T09:11:15.778Z,4.42
2019-05-13T09:13:51.422Z,4.85
2019-05-13T09:16:24.507Z,7.40
2019-05-13T09:18:57.733Z,7.55
2019-05-13T09:21:31.874Z,6.33
2019-05-13T09:24:20.627Z,7.03
2019-05-13T09:26:42.388Z,3.98
2019-05-13T09:29:15.191Z,10.90
2019-05-13T09:31:48.946Z,4.45
2019-05-13T09:34:22.356Z,5.28
2019-05-13T09:36:55.662Z,4.37
2019-05-13T09:39:32.246Z,8.03
2019-05-13T09:42:04.680Z,5.03
2019-05-13T09:44:38.381Z,6.65
2019-05-13T09:47:12.770Z,6.10
2019-05-13T09:49:46.325Z,4.90
2019-05-13T09:52:22.581Z,8.33
2019-05-13T09:54:55.449Z,5.35
2019-05-13T09:57:31.989Z,5.35
2019-05-13T10:00:05.215Z,8.18
2019-05-13T10:02:39.022Z,8.48
2019-05-13T10:05:11.865Z,7.45
2019-05-13T10:07:45.605Z,8.53
2019-05-13T10:10:22.396Z,6.50
2019-05-13T10:13:08.184Z,6.67
2019-05-13T10:15:32.573Z,5.15
2019-05-13T10:18:05.445Z,6.40
2019-05-13T10:20:52.215Z,5.55
2019-05-13T10:23:24.420Z,6.05
2019-05-13T10:26:03.253Z,7.20
2019-05-13T10:28:38.622Z,7.12
2019-05-13T10:31:12.282Z,4.37
2019-05-13T10:33:46.530Z,4.00
2019-05-13T10:36:22.305Z,4.12
2019-05-13T10:38:56.124Z,3.00
2019-05-13T10:41:33.002Z,11.85
2019-05-13T10:44:04.888Z,7.47
2019-05-13T10:46:37.689Z,6.15
2019-05-13T10:49:12.425Z,9.03
2019-05-13T10:51:45.412Z,6.53
2019-05-13T10:54:18.684Z,6.35
2019-05-13T10:56:54.253Z,5.42
2019-05-13T10:59:27.339Z,8.23
2019-05-13T11:02:02.392Z,8.55
2019-05-13T11:04:36.900Z,8.10
2019-05-13T11:07:12.021Z,5.22
2019-05-13T11:09:45.767Z,5.90
2019-05-13T11:12:19.017Z,6.10
2019-05-13T11:14:55.071Z,8.20
2019-05-13T11:17:31.131Z,5.35
2019-05-13T11:20:03.966Z,10.63
2019-05-13T11:22:37.891Z,6.92
2019-05-13T11:25:12.294Z,7.60
2019-05-13T11:27:45.795Z,5.35
2019-05-13T11:30:21.633Z,5.35
2019-05-13T11:32:54.338Z,7.70
2019-05-13T11:35:27.548Z,7.30
2019-05-13T11:38:01.696Z,4.50
2019-05-13T11:40:36.796Z,6.65
2019-05-13T11:43:12.323Z,4.28
2019-05-13T11:45:45.414Z,5.78
2019-05-13T11:48:18.508Z,10.30
2019-05-13T11:50:54.180Z,5.35
2019-05-13T11:53:33.269Z,6.78
2019-05-13T11:56:03.550Z,5.87
2019-05-13T11:58:35.747Z,6.42
2019-05-13T12:01:09.710Z,7.03
2019-05-13T12:03:43.716Z,6.17
2019-05-13T12:06:18.334Z,6.67
2019-05-13T12:08:54.980Z,4.78
2019-05-13T12:11:25.972Z,6.45
2019-05-13T12:13:57.917Z,4.37
2019-05-13T12:16:30.433Z,5.53
2019-05-13T12:19:03.839Z,7.62
2019-05-13T12:21:42.149Z,4.50
2019-05-13T12:24:11.563Z,5.37
2019-05-13T12:26:44.133Z,7.30
2019-05-13T12:29:19.372Z,7.15
2019-05-13T12:31:52.836Z,6.03
2019-05-13T12:34:27.085Z,5.65
2019-05-13T12:37:02.873Z,5.65
2019-05-13T12:39:33.609Z,8.68
2019-05-13T12:42:07.124Z,5.25
2019-05-13T12:44:59.765Z,4.08
2019-05-13T12:47:13.903Z,5.62
2019-05-13T12:49:46.363Z,5.12
2019-05-13T12:52:18.334Z,5.97
2019-05-13T12:54:52.804Z,5.03
2019-05-13T12:57:25.522Z,11.55
2019-05-13T12:59:58.653Z,4.97
2019-05-13T13:02:32.614Z,5.03
2019-05-13T13:05:10.560Z,6.10
2019-05-13T13:07:42.507Z,7.45
2019-05-13T13:10:16.375Z,5.70
2019-05-13T13:12:53.116Z,8.10
2019-05-13T13:15:36.945Z,5.20
2019-05-13T13:17:58.549Z,5.15
2019-05-13T13:20:33.477Z,5.33
2019-05-13T13:23:06.570Z,6.28
2019-05-13T13:25:42.474Z,6.25
2019-05-13T13:28:15.480Z,4.17
2019-05-13T13:30:52.522Z,6.28
2019-05-13T13:33:22.860Z,5.45
2019-05-13T13:36:00.137Z,5.00
2019-05-13T13:38:32.724Z,4.15
2019-05-13T13:41:05.638Z,6.40
2019-05-13T13:43:38.598Z,8.23
2019-05-13T13:46:32.322Z,4.47
2019-05-13T13:48:46.489Z,7.22
2019-05-13T13:51:25.911Z,4.95
2019-05-13T13:53:56.608Z,6.10
2019-05-13T13:56:27.945Z,4.35
2019-05-13T13:59:00.143Z,5.25
2019-05-13T14:01:33.972Z,4.90
2019-05-13T14:04:07.330Z,3.72
2019-05-13T14:09:13.986Z,4.40
2019-05-13T14:11:47.148Z,4.35
2019-05-13T14:14:21.546Z,4.87
2019-05-13T14:16:55.250Z,3.55
2019-05-13T14:19:28.641Z,5.53
2019-05-13T14:22:01.936Z,4.80
2019-05-13T14:24:36.168Z,5.37
2019-05-13T14:27:12.117Z,3.17
2019-05-13T14:29:49.079Z,3.75
2019-05-13T14:32:22.476Z,4.60
2019-05-13T14:34:55.193Z,8.85
2019-05-13T14:37:31.819Z,2.40
2019-05-13T14:40:04.840Z,2.98
2019-05-13T14:42:37.664Z,5.50
2019-05-13T14:45:12.997Z,4.83
2019-05-13T14:47:46.315Z,6.65
2019-05-13T14:50:21.421Z,5.20
2019-05-13T14:52:54.485Z,5.60
2019-05-13T14:55:28.337Z,6.00
2019-05-13T14:58:02.632Z,5.55
2019-05-13T15:00:36.313Z,5.65
2019-05-13T15:03:12.856Z,3.40
2019-05-13T15:05:44.485Z,6.47
2019-05-13T15:08:22.104Z,5.45
2019-05-13T15:10:53.815Z,3.58
2019-05-13T15:13:27.182Z,5.65
2019-05-13T15:15:59.628Z,5.00
2019-05-13T15:18:33.414Z,8.13
2019-05-13T15:21:06.929Z,10.28
2019-05-13T15:23:42.281Z,7.00
2019-05-13T15:26:15.595Z,9.25
2019-05-13T15:28:48.795Z,6.53
2019-05-13T15:31:24.375Z,7.60
2019-05-13T15:33:58.657Z,6.65
2019-05-13T15:36:32.808Z,10.78
2019-05-13T15:39:07.697Z,5.95
2019-05-13T15:41:41.815Z,8.30
2019-05-13T15:44:15.529Z,5.22
2019-05-13T15:46:52.026Z,4.90
2019-05-13T15:49:24.093Z,5.20
2019-05-13T15:51:57.890Z,5.40
2019-05-13T15:54:32.757Z,4.17
2019-05-13T15:57:06.119Z,4.33
2019-05-13T15:59:41.496Z,4.37
2019-05-13T16:02:14.791Z,3.45
2019-05-13T16:04:57.827Z,2.92
2019-05-13T16:07:24.128Z,4.17
2019-05-13T16:09:57.437Z,4.22
2019-05-13T16:12:32.065Z,12.13
2019-05-13T16:15:04.722Z,4.78
2019-05-13T16:17:43.987Z,6.70
2019-05-13T16:20:14.590Z,5.45
2019-05-13T16:22:48.801Z,5.12
2019-05-13T16:25:22.993Z,6.92
2019-05-13T16:27:57.639Z,5.30
2019-05-13T16:30:32.269Z,5.58
2019-05-13T16:33:05.385Z,5.60
2019-05-13T16:35:39.367Z,4.87
2019-05-13T16:38:13.010Z,4.47
2019-05-13T16:40:46.304Z,4.42
2019-05-13T16:43:20.931Z,4.25
2019-05-13T16:45:54.584Z,9.55
2019-05-13T16:48:27.496Z,3.75
2019-05-13T16:51:01.036Z,4.05
2019-05-13T16:53:34.866Z,4.75
2019-05-13T16:56:08.626Z,6.37
2019-05-13T16:58:42.293Z,5.33
2019-05-13T17:01:16.046Z,4.28
2019-05-13T17:03:51.286Z,6.72
2019-05-13T17:06:24.462Z,3.58
2019-05-13T17:08:58.165Z,5.75
2019-05-13T17:11:32.551Z,7.00
2019-05-13T17:14:06.284Z,3.52
2019-05-13T17:16:41.461Z,4.58
2019-05-13T17:19:15.320Z,3.70
2019-05-13T17:21:52.046Z,8.03
2019-05-13T17:24:28.080Z,7.05
2019-05-13T17:27:02.741Z,5.17
2019-05-13T17:29:36.835Z,4.40
2019-05-13T17:32:11.698Z,4.72
2019-05-13T17:34:46.123Z,5.42
2019-05-13T17:37:22.140Z,5.80
2019-05-13T17:39:55.584Z,5.58
2019-05-13T17:42:33.260Z,4.03
2019-05-13T17:45:07.218Z,6.53
2019-05-13T17:47:41.893Z,4.42
2019-05-13T17:50:15.718Z,6.58
2019-05-13T17:52:48.470Z,9.78
2019-05-13T17:55:22.404Z,7.00
2019-05-13T17:57:55.281Z,6.22
2019-05-13T18:00:32.291Z,8.53
2019-05-13T18:03:04.650Z,4.85
2019-05-13T18:05:37.879Z,3.60
2019-05-13T18:08:11.383Z,17.77
2019-05-13T18:10:44.879Z,60.78
2019-05-13T18:13:17.859Z,60.65
2019-05-13T18:15:51.199Z,37.45
2019-05-13T18:18:38.968Z,32.63
2019-05-13T18:21:01.520Z,24.40
2019-05-13T18:23:33.595Z,22.05
2019-05-13T18:26:06.900Z,14.63
2019-05-13T18:28:42.002Z,11.90
2019-05-13T18:31:13.869Z,8.50
2019-05-13T18:33:47.103Z,8.40
2019-05-13T18:36:22.136Z,10.40
2019-05-13T18:38:54.662Z,13.45
2019-05-13T18:41:26.687Z,10.63
2019-05-13T18:44:01.342Z,11.03
2019-05-13T18:46:34.432Z,10.93
2019-05-13T18:49:06.437Z,14.40
2019-05-13T18:51:38.851Z,9.10
2019-05-13T18:54:11.933Z,10.32
2019-05-13T18:56:46.643Z,8.90
2019-05-13T18:59:21.409Z,11.18
2019-05-13T19:01:55.116Z,13.45
2019-05-13T19:04:28.570Z,12.82
2019-05-13T19:07:02.273Z,14.78
2019-05-13T19:09:35.711Z,14.80
2019-05-13T19:12:08.760Z,10.98
2019-05-13T19:14:41.346Z,9.95
2019-05-13T19:17:13.763Z,11.18
2019-05-13T19:19:46.546Z,14.83
2019-05-13T19:22:21.419Z,12.33
2019-05-13T19:24:54.063Z,16.97
2019-05-13T19:27:27.364Z,14.03
2019-05-13T19:30:01.355Z,14.58
2019-05-13T19:32:34.882Z,14.03
2019-05-13T19:35:07.750Z,13.50
2019-05-13T19:37:42.401Z,14.83
2019-05-13T19:40:14.385Z,13.83
2019-05-13T19:42:46.779Z,12.53
2019-05-13T19:45:21.808Z,13.58
2019-05-13T19:47:54.372Z,13.00
2019-05-13T19:50:26.782Z,12.35
2019-05-13T19:53:01.273Z,17.10
2019-05-13T19:55:34.411Z,12.82
2019-05-13T19:58:08.286Z,13.75
2019-05-13T20:00:42.358Z,14.33
2019-05-13T20:03:15.170Z,13.65
2019-05-13T20:05:51.283Z,12.63
2019-05-13T20:08:24.491Z,17.10
2019-05-13T20:10:58.139Z,21.02
2019-05-13T20:13:31.972Z,13.95
2019-05-13T20:16:06.107Z,14.85
2019-05-13T20:18:41.418Z,20.48
2019-05-13T20:21:16.163Z,20.62
2019-05-13T20:23:51.885Z,21.10
2019-05-13T20:26:25.614Z,21.85
2019-05-13T20:28:58.379Z,20.02
2019-05-13T20:31:32.308Z,26.07
2019-05-13T20:34:05.597Z,29.95
2019-05-13T20:36:39.437Z,25.02
2019-05-13T20:39:12.800Z,21.02
2019-05-13T20:41:46.097Z,19.15
2019-05-13T20:44:18.595Z,19.62
2019-05-13T20:46:52.814Z,18.25
2019-05-13T20:49:26.197Z,17.73
2019-05-13T20:52:02.205Z,15.70
2019-05-13T20:54:36.259Z,21.52
2019-05-13T20:57:10.066Z,14.90
2019-05-13T20:59:43.391Z,14.85
2019-05-13T21:02:16.435Z,15.78
2019-05-13T21:04:49.494Z,16.37
2019-05-13T21:07:23.996Z,13.25
2019-05-13T21:09:57.788Z,15.83
2019-05-13T21:12:31.366Z,15.40
2019-05-13T21:15:05.099Z,17.95
2019-05-13T21:17:39.009Z,13.70
2019-05-13T21:20:19.726Z,11.57
2019-05-13T21:22:47.536Z,15.00
2019-05-13T21:25:20.831Z,14.03
2019-05-13T21:27:53.708Z,11.43
2019-05-13T21:30:27.114Z,17.32
2019-05-13T21:33:02.225Z,15.48
2019-05-13T21:35:34.899Z,17.07
2019-05-13T21:38:08.270Z,17.05
2019-05-13T21:40:41.770Z,14.58
2019-05-13T21:43:14.723Z,16.17
2019-05-13T21:45:48.293Z,19.50
2019-05-13T21:48:21.855Z,29.70
2019-05-13T21:50:55.561Z,36.23
2019-05-13T21:53:28.888Z,28.65
2019-05-13T21:56:02.697Z,26.57
2019-05-13T21:58:36.528Z,23.52
2019-05-13T22:01:09.941Z,25.00
2019-05-13T22:03:43.849Z,33.40
2019-05-13T22:06:17.609Z,37.08
2019-05-13T22:08:51.834Z,34.50
2019-05-13T22:11:25.740Z,30.52
2019-05-13T22:14:01.704Z,30.70
2019-05-13T22:16:34.016Z,26.65
2019-05-13T22:19:06.902Z,23.20
2019-05-13T22:21:42.384Z,23.22
2019-05-13T22:24:15.314Z,22.15
2019-05-13T22:26:51.200Z,20.72
2019-05-13T22:29:24.243Z,22.85
2019-05-13T22:31:58.057Z,22.93
2019-05-13T22:34:31.891Z,23.12
2019-05-13T22:37:05.681Z,23.83
2019-05-13T22:39:38.997Z,25.23
2019-05-13T22:42:12.676Z,26.77
2019-05-13T22:44:45.972Z,21.68
2019-05-13T22:47:22.000Z,21.42
2019-05-13T22:49:56.986Z,21.15
2019-05-13T22:52:31.481Z,24.15
2019-05-13T22:55:04.744Z,19.60
2019-05-13T22:57:38.187Z,20.43
2019-05-13T23:00:12.011Z,19.70
2019-05-13T23:02:46.517Z,17.92
2019-05-13T23:05:21.745Z,19.07
2019-05-13T23:07:55.214Z,18.92
2019-05-13T23:10:31.655Z,20.37
2019-05-13T23:13:04.458Z,20.25
2019-05-13T23:15:38.174Z,19.65
2019-05-13T23:18:11.861Z,17.07
2019-05-13T23:20:45.440Z,18.75
2019-05-13T23:23:21.980Z,18.27
2019-05-13T23:25:56.827Z,20.77
2019-05-13T23:28:29.357Z,20.20
2019-05-13T23:31:02.953Z,16.97
2019-05-13T23:33:36.268Z,19.82
2019-05-13T23:36:09.176Z,19.55
2019-05-13T23:38:42.464Z,20.27
2019-05-13T23:41:16.672Z,19.77
2019-05-13T23:43:50.043Z,21.02
2019-05-13T23:46:23.327Z,22.62
2019-05-13T23:48:57.094Z,19.00
2019-05-13T23:51:32.056Z,25.17
2019-05-13T23:54:04.603Z,17.35
2019-05-13T23:56:38.383Z,18.73
2019-05-13T23:59:11.740Z,19.20
